createdAt,value
2016-07-29T00:00:41.634Z,0
2016-07-29T00:02:41.647Z,0
2016-07-29T00:03:41.660Z,0
2016-07-29T00:04:41.606Z,0
2016-07-29T00:05:41.623Z,0
2016-07-29T00:06:41.607Z,0
2016-07-29T00:07:41.629Z,0
2016-07-29T00:08:41.620Z,0
2016-07-29T00:09:41.610Z,0
2016-07-29T00:10:41.609Z,0
2016-07-29T00:11:41.609Z,0
2016-07-29T00:12:41.604Z,0
2016-07-29T00:13:41.588Z,0
2016-07-29T00:14:41.600Z,0
2016-07-29T00:15:41.583Z,0
2016-07-29T00:16:41.671Z,0
2016-07-29T00:17:41.644Z,0
2016-07-29T00:18:41.592Z,0
2016-07-29T00:19:42.545Z,0
2016-07-29T00:20:41.622Z,0
2016-07-29T00:21:41.597Z,0
2016-07-29T00:22:41.719Z,0
2016-07-29T00:23:41.583Z,0
2016-07-29T00:24:41.576Z,0
2016-07-29T00:25:41.597Z,0
2016-07-29T00:26:41.569Z,0
2016-07-29T00:27:41.571Z,0
2016-07-29T00:28:42.535Z,0
2016-07-29T00:29:42.338Z,0
2016-07-29T00:30:41.583Z,0
2016-07-29T00:31:42.536Z,0
2016-07-29T00:32:41.578Z,0
2016-07-29T00:33:41.565Z,0
2016-07-29T00:34:41.593Z,0
2016-07-29T00:35:41.555Z,0
2016-07-29T00:36:41.566Z,0
2016-07-29T00:37:41.559Z,0
2016-07-29T00:38:41.651Z,0
2016-07-29T00:39:41.573Z,0
2016-07-29T00:40:41.658Z,0
2016-07-29T00:41:41.562Z,0
2016-07-29T00:42:41.583Z,0
2016-07-29T00:43:42.498Z,0
2016-07-29T00:44:41.586Z,0
2016-07-29T00:45:41.549Z,0
2016-07-29T00:46:41.524Z,0
2016-07-29T00:47:41.575Z,0
2016-07-29T00:48:41.553Z,0
2016-07-29T00:49:41.541Z,0
2016-07-29T00:50:41.538Z,0
2016-07-29T00:51:41.560Z,0
2016-07-29T00:52:41.539Z,0
2016-07-29T00:53:41.535Z,0
2016-07-29T00:54:41.543Z,0
2016-07-29T00:55:41.840Z,0
2016-07-29T00:56:41.523Z,0
2016-07-29T00:57:41.563Z,0
2016-07-29T00:58:41.523Z,0
2016-07-29T00:59:41.610Z,0
2016-07-29T01:00:41.560Z,0
2016-07-29T01:01:41.518Z,0
2016-07-29T01:02:41.525Z,0
2016-07-29T01:03:41.590Z,0
2016-07-29T01:04:41.527Z,0
2016-07-29T01:05:41.577Z,0
2016-07-29T01:06:41.431Z,0
2016-07-29T01:07:41.498Z,0
2016-07-29T01:08:41.520Z,0
2016-07-29T01:09:41.695Z,0
2016-07-29T01:10:41.502Z,0
2016-07-29T01:11:41.497Z,0
2016-07-29T01:12:41.508Z,0
2016-07-29T01:13:41.503Z,0
2016-07-29T01:14:41.755Z,0
2016-07-29T01:15:41.553Z,0
2016-07-29T01:16:41.500Z,0
2016-07-29T01:17:41.487Z,0
2016-07-29T01:18:41.496Z,0
2016-07-29T01:19:41.498Z,0
2016-07-29T01:20:41.596Z,0
2016-07-29T01:21:41.483Z,0
2016-07-29T01:22:41.483Z,0
2016-07-29T01:23:41.469Z,0
2016-07-29T01:24:41.477Z,0
2016-07-29T01:25:41.492Z,0
2016-07-29T01:26:41.459Z,0
2016-07-29T01:27:41.483Z,0
2016-07-29T01:28:41.475Z,0
2016-07-29T01:29:41.479Z,0
2016-07-29T01:30:41.481Z,0
2016-07-29T01:31:41.465Z,0
2016-07-29T01:32:41.461Z,0
2016-07-29T01:33:41.492Z,0
2016-07-29T01:34:41.514Z,0
2016-07-29T01:35:41.467Z,0
2016-07-29T01:36:41.460Z,0
2016-07-29T01:37:41.452Z,0
2016-07-29T01:38:41.697Z,0
2016-07-29T01:39:41.451Z,0
2016-07-29T01:40:41.455Z,0
2016-07-29T01:41:41.463Z,0
2016-07-29T01:42:41.471Z,0
2016-07-29T01:43:41.438Z,0
2016-07-29T01:44:41.435Z,0
2016-07-29T01:45:41.442Z,0
2016-07-29T01:46:41.454Z,0
2016-07-29T01:47:41.490Z,0
2016-07-29T01:48:41.424Z,0
2016-07-29T01:49:41.425Z,0
2016-07-29T01:50:41.423Z,0
2016-07-29T01:51:41.432Z,0
2016-07-29T01:52:41.432Z,0
2016-07-29T01:53:41.389Z,0
2016-07-29T01:54:41.456Z,0
2016-07-29T01:55:41.413Z,0
2016-07-29T01:56:41.423Z,0
2016-07-29T01:57:41.404Z,0
2016-07-29T01:58:41.403Z,0
2016-07-29T01:59:41.647Z,0
2016-07-29T02:00:41.391Z,0
2016-07-29T02:01:41.427Z,0
2016-07-29T02:02:41.400Z,0
2016-07-29T02:03:41.404Z,0
2016-07-29T02:04:41.445Z,0
2016-07-29T02:05:41.383Z,0
2016-07-29T02:06:41.382Z,0
2016-07-29T02:07:41.384Z,0
2016-07-29T02:08:41.383Z,0
2016-07-29T02:09:41.407Z,0
2016-07-29T02:10:41.492Z,0
2016-07-29T02:11:41.393Z,0
2016-07-29T02:12:41.381Z,0
2016-07-29T02:13:41.374Z,0
2016-07-29T02:14:41.420Z,0
2016-07-29T02:15:41.354Z,0
2016-07-29T02:16:41.346Z,0
2016-07-29T02:17:41.392Z,0
2016-07-29T02:18:42.160Z,0
2016-07-29T02:19:41.346Z,0
2016-07-29T02:20:41.354Z,0
2016-07-29T02:21:41.370Z,0
2016-07-29T02:22:41.342Z,0
2016-07-29T02:23:41.330Z,0
2016-07-29T02:24:41.344Z,0
2016-07-29T02:25:42.072Z,0
2016-07-29T02:26:41.324Z,0
2016-07-29T02:27:42.093Z,0
2016-07-29T02:28:41.342Z,0
2016-07-29T02:29:41.353Z,0
2016-07-29T02:30:41.324Z,0
2016-07-29T02:31:42.792Z,0
2016-07-29T02:32:41.302Z,0
2016-07-29T02:33:41.314Z,0
2016-07-29T02:34:41.379Z,0
2016-07-29T02:35:41.338Z,0
2016-07-29T02:36:41.319Z,0
2016-07-29T02:37:41.287Z,0
2016-07-29T02:38:41.304Z,0
2016-07-29T02:39:41.287Z,0
2016-07-29T02:40:41.283Z,0
2016-07-29T02:41:41.313Z,0
2016-07-29T02:42:41.304Z,0
2016-07-29T02:43:41.291Z,0
2016-07-29T02:44:41.264Z,0
2016-07-29T02:45:41.268Z,0
2016-07-29T02:46:41.285Z,0
2016-07-29T02:47:41.251Z,0
2016-07-29T02:48:41.313Z,0
2016-07-29T02:49:42.222Z,0
2016-07-29T02:50:41.281Z,0
2016-07-29T02:51:41.259Z,0
2016-07-29T02:52:41.243Z,0
2016-07-29T02:53:41.251Z,0
2016-07-29T02:54:41.250Z,0
2016-07-29T02:55:41.259Z,0
2016-07-29T02:56:41.233Z,0
2016-07-29T02:57:41.223Z,0
2016-07-29T02:58:41.453Z,4
2016-07-29T02:59:41.226Z,4
2016-07-29T03:00:41.218Z,4
2016-07-29T03:01:41.231Z,4
2016-07-29T03:02:41.957Z,4
2016-07-29T03:03:41.234Z,4
2016-07-29T03:04:41.192Z,4
2016-07-29T03:05:41.232Z,4
2016-07-29T03:06:41.171Z,4
2016-07-29T03:07:41.212Z,8
2016-07-29T03:08:41.232Z,8
2016-07-29T03:09:41.202Z,8
2016-07-29T03:10:41.443Z,8
2016-07-29T03:11:41.286Z,8
2016-07-29T03:12:41.210Z,12
2016-07-29T03:13:41.203Z,12
2016-07-29T03:14:41.132Z,20
2016-07-29T03:15:41.154Z,24
2016-07-29T03:16:41.168Z,28
2016-07-29T03:17:41.172Z,32
2016-07-29T03:18:41.174Z,36
2016-07-29T03:19:41.891Z,40
2016-07-29T03:20:41.140Z,40
2016-07-29T03:21:41.167Z,48
2016-07-29T03:22:41.149Z,52
2016-07-29T03:23:41.166Z,64
2016-07-29T03:24:41.122Z,72
2016-07-29T03:25:41.209Z,76
2016-07-29T03:26:41.195Z,80
2016-07-29T03:27:41.147Z,88
2016-07-29T03:28:41.148Z,92
2016-07-29T03:29:41.100Z,92
2016-07-29T03:30:41.100Z,100
2016-07-29T03:31:41.153Z,108
2016-07-29T03:32:41.192Z,116
2016-07-29T03:33:41.138Z,132
2016-07-29T03:34:41.114Z,144
2016-07-29T03:35:41.138Z,152
2016-07-29T03:36:41.120Z,156
2016-07-29T03:37:41.066Z,168
2016-07-29T03:38:41.072Z,176
2016-07-29T03:39:41.116Z,188
2016-07-29T03:40:41.102Z,208
2016-07-29T03:41:41.089Z,228
2016-07-29T03:42:41.098Z,248
2016-07-29T03:43:41.113Z,280
2016-07-29T03:44:41.135Z,308
2016-07-29T03:45:41.112Z,344
2016-07-29T03:46:41.083Z,356
2016-07-29T03:47:41.180Z,364
2016-07-29T03:48:41.061Z,380
2016-07-29T03:49:41.086Z,408
2016-07-29T03:50:41.030Z,424
2016-07-29T03:51:41.023Z,432
2016-07-29T03:52:41.106Z,452
2016-07-29T03:53:41.059Z,484
2016-07-29T03:54:41.017Z,528
2016-07-29T03:55:40.997Z,572
2016-07-29T03:56:41.050Z,632
2016-07-29T03:57:41.284Z,712
2016-07-29T03:58:41.047Z,796
2016-07-29T03:59:41.077Z,828
2016-07-29T04:00:41.067Z,808
2016-07-29T04:01:41.075Z,792
2016-07-29T04:03:41.065Z,744
2016-07-29T04:04:41.258Z,700
2016-07-29T04:05:41.065Z,696
2016-07-29T04:06:41.042Z,728
2016-07-29T04:07:41.049Z,748
2016-07-29T04:08:41.121Z,736
2016-07-29T04:09:42.004Z,728
2016-07-29T04:10:41.301Z,704
2016-07-29T04:11:41.029Z,728
2016-07-29T04:12:41.017Z,820
2016-07-29T04:13:41.039Z,844
2016-07-29T04:14:40.998Z,944
2016-07-29T04:15:41.039Z,1168
2016-07-29T04:16:41.013Z,1232
2016-07-29T04:17:41.003Z,1112
2016-07-29T04:18:41.017Z,1068
2016-07-29T04:19:40.991Z,1172
2016-07-29T04:20:41.002Z,1316
2016-07-29T04:21:41.043Z,1344
2016-07-29T04:22:41.009Z,1224
2016-07-29T04:23:41.011Z,1140
2016-07-29T04:24:40.978Z,1180
2016-07-29T04:25:41.003Z,1304
2016-07-29T04:26:41.000Z,1444
2016-07-29T04:27:40.994Z,1616
2016-07-29T04:28:40.997Z,1832
2016-07-29T04:29:40.988Z,2028
2016-07-29T04:30:40.971Z,2076
2016-07-29T04:31:40.981Z,1976
2016-07-29T04:32:40.984Z,2080
2016-07-29T04:33:40.980Z,2204
2016-07-29T04:34:40.976Z,1964
2016-07-29T04:35:40.970Z,1792
2016-07-29T04:36:40.971Z,2008
2016-07-29T04:37:40.956Z,2260
2016-07-29T04:38:40.957Z,2564
2016-07-29T04:39:40.949Z,2804
2016-07-29T04:40:40.971Z,3088
2016-07-29T04:41:40.942Z,3004
2016-07-29T04:42:41.201Z,2728
2016-07-29T04:43:40.979Z,2720
2016-07-29T04:44:40.925Z,2628
2016-07-29T04:45:40.950Z,2536
2016-07-29T04:46:41.893Z,2264
2016-07-29T04:47:41.188Z,2052
2016-07-29T04:48:40.914Z,2052
2016-07-29T04:49:40.951Z,2168
2016-07-29T04:50:40.920Z,2200
2016-07-29T04:51:40.926Z,2188
2016-07-29T04:52:41.213Z,2188
2016-07-29T04:53:41.643Z,2140
2016-07-29T04:54:40.857Z,2152
2016-07-29T04:55:40.885Z,2260
2016-07-29T04:56:40.892Z,2384
2016-07-29T04:57:40.909Z,2488
2016-07-29T04:58:40.887Z,2584
2016-07-29T04:59:40.879Z,2668
2016-07-29T05:00:40.875Z,2800
2016-07-29T05:01:40.881Z,2852
2016-07-29T05:02:40.855Z,2928
2016-07-29T05:03:41.069Z,2996
2016-07-29T05:04:41.167Z,3068
2016-07-29T05:05:41.070Z,3308
2016-07-29T05:06:41.059Z,3460
2016-07-29T05:07:41.054Z,3632
2016-07-29T05:08:40.810Z,3800
2016-07-29T05:09:40.861Z,4040
2016-07-29T05:10:40.909Z,4464
2016-07-29T05:11:41.887Z,4872
2016-07-29T05:12:41.061Z,5188
2016-07-29T05:13:41.056Z,5408
2016-07-29T05:14:40.951Z,5600
2016-07-29T05:15:41.121Z,5856
2016-07-29T05:16:41.082Z,6228
2016-07-29T05:17:41.048Z,6640
2016-07-29T05:18:41.078Z,6828
2016-07-29T05:19:41.099Z,7044
2016-07-29T05:20:41.117Z,7148
2016-07-29T05:21:41.033Z,7364
2016-07-29T05:22:41.041Z,8428
2016-07-29T05:23:41.040Z,7272
2016-07-29T05:24:41.039Z,8740
2016-07-29T05:25:41.049Z,6628
2016-07-29T05:26:41.081Z,5956
2016-07-29T05:27:41.067Z,6200
2016-07-29T05:28:41.064Z,7104
2016-07-29T05:29:41.080Z,8508
2016-07-29T05:30:41.079Z,9412
2016-07-29T05:31:41.094Z,9528
2016-07-29T05:32:41.090Z,9628
2016-07-29T05:33:41.113Z,9644
2016-07-29T05:34:41.006Z,10100
2016-07-29T05:35:41.015Z,10200
2016-07-29T05:36:41.033Z,10600
2016-07-29T05:37:41.029Z,11652
2016-07-29T05:38:41.036Z,12600
2016-07-29T05:39:41.046Z,10756
2016-07-29T05:40:41.048Z,9972
2016-07-29T05:41:41.061Z,11524
2016-07-29T05:42:41.021Z,11752
2016-07-29T05:43:41.079Z,12736
2016-07-29T05:44:41.025Z,12492
2016-07-29T05:45:41.023Z,11624
2016-07-29T05:46:40.994Z,11212
2016-07-29T05:47:41.006Z,10292
2016-07-29T05:48:41.208Z,9288
2016-07-29T05:49:40.996Z,8860
2016-07-29T05:50:40.970Z,8424
2016-07-29T05:51:41.479Z,7996
2016-07-29T05:52:41.045Z,7332
2016-07-29T05:53:41.045Z,6464
2016-07-29T05:54:41.050Z,5868
2016-07-29T05:55:41.070Z,5316
2016-07-29T05:56:41.058Z,4896
2016-07-29T05:57:40.900Z,4504
2016-07-29T05:58:41.089Z,4196
2016-07-29T05:59:40.992Z,4328
2016-07-29T06:00:40.999Z,4724
2016-07-29T06:01:41.009Z,5424
2016-07-29T06:02:40.969Z,6120
2016-07-29T06:03:41.017Z,6932
2016-07-29T06:04:41.010Z,7212
2016-07-29T06:05:40.729Z,7356
2016-07-29T06:06:40.778Z,7160
2016-07-29T06:07:40.768Z,7372
2016-07-29T06:08:40.770Z,7688
2016-07-29T06:09:40.775Z,8436
2016-07-29T06:10:40.717Z,8552
2016-07-29T06:11:40.759Z,8604
2016-07-29T06:12:40.762Z,9160
2016-07-29T06:13:40.763Z,10000
2016-07-29T06:14:40.786Z,9656
2016-07-29T06:15:40.770Z,9356
2016-07-29T06:16:40.754Z,9064
2016-07-29T06:17:40.753Z,8784
2016-07-29T06:18:40.823Z,8732
2016-07-29T06:19:40.765Z,8908
2016-07-29T06:20:40.756Z,8516
2016-07-29T06:21:40.712Z,8504
2016-07-29T06:22:40.764Z,8704
2016-07-29T06:23:40.764Z,9196
2016-07-29T06:24:40.746Z,9916
2016-07-29T06:25:40.764Z,10112
2016-07-29T06:26:40.763Z,10700
2016-07-29T06:27:40.714Z,10840
2016-07-29T06:28:40.771Z,11144
2016-07-29T06:29:41.449Z,12788
2016-07-29T06:30:40.720Z,12296
2016-07-29T06:31:40.762Z,10152
2016-07-29T06:32:40.764Z,9392
2016-07-29T06:34:40.822Z,7780
2016-07-29T06:35:40.755Z,7388
2016-07-29T06:36:40.756Z,6260
2016-07-29T06:37:40.761Z,6800
2016-07-29T06:38:41.429Z,7080
2016-07-29T06:39:40.712Z,6388
2016-07-29T06:40:40.734Z,6632
2016-07-29T06:41:40.743Z,7076
2016-07-29T06:42:40.730Z,6472
2016-07-29T06:43:40.748Z,6488
2016-07-29T06:44:40.786Z,6000
2016-07-29T06:45:40.757Z,6328
2016-07-29T06:46:40.757Z,6816
2016-07-29T06:47:40.750Z,6716
2016-07-29T06:48:40.725Z,6528
2016-07-29T06:49:40.818Z,6796
2016-07-29T06:50:40.765Z,6464
2016-07-29T06:51:40.762Z,6856
2016-07-29T06:52:40.774Z,5048
2016-07-29T06:53:40.715Z,4952
2016-07-29T06:54:40.704Z,5140
2016-07-29T06:55:40.822Z,5244
2016-07-29T06:56:40.758Z,5224
2016-07-29T06:57:40.755Z,5964
2016-07-29T06:58:40.736Z,6548
2016-07-29T06:59:40.727Z,7580
2016-07-29T07:00:40.712Z,7656
2016-07-29T07:01:40.754Z,8136
2016-07-29T07:02:40.758Z,8052
2016-07-29T07:03:40.744Z,7468
2016-07-29T07:04:40.759Z,6784
2016-07-29T07:05:41.468Z,5912
2016-07-29T07:06:40.753Z,5276
2016-07-29T07:07:40.765Z,4832
2016-07-29T07:08:40.758Z,4812
2016-07-29T07:09:40.756Z,5176
2016-07-29T07:10:40.739Z,5684
2016-07-29T07:11:40.749Z,5988
2016-07-29T07:12:40.744Z,5632
2016-07-29T07:13:40.757Z,4760
2016-07-29T07:14:40.726Z,3632
2016-07-29T07:15:40.702Z,2712
2016-07-29T07:16:40.766Z,2256
2016-07-29T07:17:40.749Z,2224
2016-07-29T07:18:40.762Z,2408
2016-07-29T07:19:40.747Z,2508
2016-07-29T07:20:40.749Z,2488
2016-07-29T07:21:40.738Z,2344
2016-07-29T07:22:40.725Z,2124
2016-07-29T07:23:40.740Z,1852
2016-07-29T07:24:40.735Z,1592
2016-07-29T07:25:40.748Z,1960
2016-07-29T07:26:40.738Z,2400
2016-07-29T07:27:40.752Z,2552
2016-07-29T07:28:40.730Z,2412
2016-07-29T07:29:40.734Z,1792
2016-07-29T07:30:40.731Z,1576
2016-07-29T07:31:40.729Z,1292
2016-07-29T07:32:40.720Z,1068
2016-07-29T07:33:40.717Z,1040
2016-07-29T07:34:40.725Z,1180
2016-07-29T07:35:40.725Z,1480
2016-07-29T07:36:40.719Z,1772
2016-07-29T07:37:40.726Z,2008
2016-07-29T07:38:40.715Z,2004
2016-07-29T07:39:40.710Z,2160
2016-07-29T07:40:40.715Z,2120
2016-07-29T07:41:40.722Z,1944
2016-07-29T07:42:40.708Z,1656
2016-07-29T07:43:40.716Z,1520
2016-07-29T07:44:40.702Z,1416
2016-07-29T07:45:40.703Z,1288
2016-07-29T07:46:40.693Z,964
2016-07-29T07:47:40.705Z,748
2016-07-29T07:48:40.695Z,896
2016-07-29T07:49:40.749Z,1000
2016-07-29T07:50:40.702Z,796
2016-07-29T07:51:40.694Z,764
2016-07-29T07:52:40.685Z,1056
2016-07-29T07:53:40.683Z,1668
2016-07-29T07:54:40.656Z,1872
2016-07-29T07:55:40.680Z,2072
2016-07-29T07:56:40.673Z,2404
2016-07-29T07:57:40.678Z,2456
2016-07-29T07:58:40.667Z,2588
2016-07-29T07:59:40.662Z,2520
2016-07-29T08:00:40.672Z,2424
2016-07-29T08:01:40.710Z,2300
2016-07-29T08:02:40.676Z,2244
2016-07-29T08:04:40.657Z,2772
2016-07-29T08:05:40.648Z,3060
2016-07-29T08:06:40.665Z,3088
2016-07-29T08:07:40.655Z,2968
2016-07-29T08:08:40.634Z,3080
2016-07-29T08:09:40.631Z,3056
2016-07-29T08:10:40.654Z,3228
2016-07-29T08:11:40.632Z,3464
2016-07-29T08:12:40.632Z,3384
2016-07-29T08:13:40.635Z,3516
2016-07-29T08:14:40.650Z,3612
2016-07-29T08:15:40.627Z,3944
2016-07-29T08:16:40.617Z,4256
2016-07-29T08:17:40.631Z,4696
2016-07-29T08:18:40.663Z,5200
2016-07-29T08:19:40.605Z,5148
2016-07-29T08:20:40.591Z,4764
2016-07-29T08:21:40.617Z,4604
2016-07-29T08:22:40.609Z,4604
2016-07-29T08:23:40.587Z,4320
2016-07-29T08:24:40.608Z,3884
2016-07-29T08:25:40.591Z,3336
2016-07-29T08:26:40.599Z,2892
2016-07-29T08:27:41.336Z,2768
2016-07-29T08:28:41.301Z,3340
2016-07-29T08:29:40.551Z,4100
2016-07-29T08:30:40.582Z,4620
2016-07-29T08:31:40.668Z,4968
2016-07-29T08:32:40.767Z,5648
2016-07-29T08:33:40.685Z,6788
2016-07-29T08:34:40.783Z,7740
2016-07-29T08:35:40.733Z,8240
2016-07-29T08:36:40.766Z,6844
2016-07-29T08:37:40.759Z,5824
2016-07-29T08:38:40.756Z,5468
2016-07-29T08:39:40.705Z,5960
2016-07-29T08:40:40.806Z,7176
2016-07-29T08:41:40.731Z,7604
2016-07-29T08:42:40.628Z,6940
2016-07-29T08:43:40.553Z,7888
2016-07-29T08:44:40.539Z,11240
2016-07-29T08:45:40.520Z,14784
2016-07-29T08:46:40.524Z,17888
2016-07-29T08:47:40.548Z,17760
2016-07-29T08:49:40.510Z,14824
2016-07-29T08:50:40.526Z,15428
2016-07-29T08:51:40.517Z,15676
2016-07-29T08:52:40.524Z,14980
2016-07-29T08:53:40.587Z,15012
2016-07-29T08:54:40.539Z,15616
2016-07-29T08:55:40.532Z,17120
2016-07-29T08:56:40.511Z,17856
2016-07-29T08:57:40.522Z,17632
2016-07-29T08:58:40.493Z,18592
2016-07-29T08:59:40.491Z,20704
2016-07-29T09:00:40.494Z,22016
2016-07-29T09:01:40.499Z,21600
2016-07-29T09:02:40.511Z,21248
2016-07-29T09:04:41.248Z,19296
2016-07-29T09:05:40.499Z,18944
2016-07-29T09:06:40.514Z,19232
2016-07-29T09:07:40.500Z,17760
2016-07-29T09:08:40.508Z,16100
2016-07-29T09:09:41.242Z,13476
2016-07-29T09:10:40.493Z,11064
2016-07-29T09:11:40.490Z,9460
2016-07-29T09:12:40.710Z,8100
2016-07-29T09:13:40.512Z,7736
2016-07-29T09:14:40.511Z,7900
2016-07-29T09:15:40.500Z,8012
2016-07-29T09:16:40.509Z,6928
2016-07-29T09:17:40.519Z,7556
2016-07-29T09:18:40.527Z,9992
2016-07-29T09:19:40.646Z,11536
2016-07-29T09:20:40.556Z,11064
2016-07-29T09:21:40.522Z,10712
2016-07-29T09:22:40.514Z,13732
2016-07-29T09:23:40.503Z,13428
2016-07-29T09:24:40.507Z,11812
2016-07-29T09:25:40.598Z,11208
2016-07-29T09:26:40.497Z,13296
2016-07-29T09:27:40.486Z,14208
2016-07-29T09:28:40.444Z,15088
2016-07-29T09:29:40.449Z,12740
2016-07-29T09:30:40.479Z,10832
2016-07-29T09:31:40.497Z,8692
2016-07-29T09:32:40.503Z,6452
2016-07-29T09:33:40.601Z,7604
2016-07-29T09:34:40.523Z,6728
2016-07-29T09:35:40.502Z,6468
2016-07-29T09:36:40.508Z,6608
2016-07-29T09:37:40.519Z,6776
2016-07-29T09:38:40.495Z,7160
2016-07-29T09:39:40.470Z,6244
2016-07-29T09:40:40.511Z,6016
2016-07-29T09:41:40.498Z,6536
2016-07-29T09:42:40.500Z,10036
2016-07-29T09:43:40.513Z,14100
2016-07-29T09:44:40.505Z,13748
2016-07-29T09:45:40.520Z,11800
2016-07-29T09:46:40.593Z,9908
2016-07-29T09:47:40.626Z,11128
2016-07-29T09:48:40.496Z,14620
2016-07-29T09:49:40.489Z,10932
2016-07-29T09:50:40.533Z,6312
2016-07-29T09:51:40.687Z,6868
2016-07-29T09:52:40.737Z,7956
2016-07-29T09:53:40.548Z,8788
2016-07-29T09:54:40.538Z,5612
2016-07-29T09:55:40.489Z,5160
2016-07-29T09:56:40.464Z,5456
2016-07-29T09:57:40.481Z,5236
2016-07-29T09:58:40.510Z,4808
2016-07-29T09:59:40.539Z,4300
2016-07-29T10:00:40.634Z,7780
2016-07-29T10:01:40.530Z,5436
2016-07-29T10:02:40.582Z,6908
2016-07-29T10:03:40.536Z,5064
2016-07-29T10:04:40.553Z,5364
2016-07-29T10:05:40.498Z,4756
2016-07-29T10:06:40.485Z,4596
2016-07-29T10:07:40.568Z,4388
2016-07-29T10:08:40.467Z,4900
2016-07-29T10:09:41.193Z,6976
2016-07-29T10:10:40.497Z,6428
2016-07-29T10:11:40.547Z,5580
2016-07-29T10:12:40.636Z,5356
2016-07-29T10:13:40.502Z,6508
2016-07-29T10:14:40.479Z,9348
2016-07-29T10:15:40.591Z,10316
2016-07-29T10:16:40.479Z,7440
2016-07-29T10:17:40.496Z,5428
2016-07-29T10:18:40.477Z,5240
2016-07-29T10:19:40.523Z,4784
2016-07-29T10:20:40.512Z,4712
2016-07-29T10:21:40.527Z,4808
2016-07-29T10:22:40.556Z,5432
2016-07-29T10:23:40.476Z,6700
2016-07-29T10:24:40.482Z,7600
2016-07-29T10:25:41.303Z,7536
2016-07-29T10:26:40.562Z,6772
2016-07-29T10:27:40.608Z,6140
2016-07-29T10:28:40.549Z,5920
2016-07-29T10:29:40.492Z,6532
2016-07-29T10:30:40.518Z,8500
2016-07-29T10:31:40.496Z,10160
2016-07-29T10:32:40.496Z,11296
2016-07-29T10:33:40.500Z,11932
2016-07-29T10:34:40.529Z,11904
2016-07-29T10:35:40.539Z,11396
2016-07-29T10:36:41.239Z,11444
2016-07-29T10:37:41.261Z,12316
2016-07-29T10:38:40.484Z,13148
2016-07-29T10:39:40.500Z,11860
2016-07-29T10:40:41.509Z,9624
2016-07-29T10:41:40.567Z,7816
2016-07-29T10:42:40.592Z,6592
2016-07-29T10:43:40.502Z,6836
2016-07-29T10:44:40.517Z,8980
2016-07-29T10:45:41.069Z,12492
2016-07-29T10:46:40.870Z,15564
2016-07-29T10:47:41.716Z,12424
2016-07-29T10:48:41.384Z,10664
2016-07-29T10:49:41.661Z,9480
2016-07-29T10:50:40.765Z,8892
2016-07-29T10:51:40.545Z,9456
2016-07-29T10:52:40.589Z,10412
2016-07-29T10:53:40.534Z,11568
2016-07-29T10:54:40.553Z,12188
2016-07-29T10:55:40.518Z,11904
2016-07-29T10:56:40.531Z,10968
2016-07-29T10:57:41.685Z,10536
2016-07-29T10:58:40.529Z,11776
2016-07-29T10:59:40.701Z,13156
2016-07-29T11:00:41.952Z,12416
2016-07-29T11:01:40.523Z,12272
2016-07-29T11:02:40.741Z,13692
2016-07-29T11:03:40.520Z,14960
2016-07-29T11:04:40.521Z,15032
2016-07-29T11:05:40.514Z,15304
2016-07-29T11:06:40.578Z,15760
2016-07-29T11:07:40.522Z,15656
2016-07-29T11:08:40.531Z,15588
2016-07-29T11:09:40.522Z,15140
2016-07-29T11:10:40.526Z,14968
2016-07-29T11:11:40.521Z,14708
2016-07-29T11:12:40.539Z,13540
2016-07-29T11:13:40.538Z,13344
2016-07-29T11:14:40.524Z,13584
2016-07-29T11:15:41.231Z,12024
2016-07-29T11:16:40.559Z,9728
2016-07-29T11:17:40.583Z,8096
2016-07-29T11:18:40.532Z,7980
2016-07-29T11:19:40.532Z,8232
2016-07-29T11:20:40.568Z,9168
2016-07-29T11:21:40.563Z,10720
2016-07-29T11:22:40.569Z,12696
2016-07-29T11:23:40.544Z,14456
2016-07-29T11:24:40.543Z,14972
2016-07-29T11:25:40.599Z,14740
2016-07-29T11:26:40.607Z,13476
2016-07-29T11:27:40.621Z,12540
2016-07-29T11:28:40.579Z,12800
2016-07-29T11:29:40.570Z,13316
2016-07-29T11:30:40.608Z,13152
2016-07-29T11:31:40.608Z,12372
2016-07-29T11:32:40.542Z,11608
2016-07-29T11:33:40.564Z,11632
2016-07-29T11:34:40.573Z,11152
2016-07-29T11:35:40.692Z,12160
2016-07-29T11:36:40.582Z,12460
2016-07-29T11:37:40.595Z,11800
2016-07-29T11:38:40.568Z,10900
2016-07-29T11:39:40.575Z,10124
2016-07-29T11:40:40.567Z,8488
2016-07-29T11:41:40.621Z,9316
2016-07-29T11:42:40.570Z,10932
2016-07-29T11:43:40.623Z,11724
2016-07-29T11:44:40.633Z,11396
2016-07-29T11:45:40.640Z,10340
2016-07-29T11:46:40.617Z,9860
2016-07-29T11:47:40.624Z,10676
2016-07-29T11:48:40.670Z,11596
2016-07-29T11:49:40.655Z,11748
2016-07-29T11:50:40.645Z,12576
2016-07-29T11:51:40.634Z,12568
2016-07-29T11:52:40.594Z,11960
2016-07-29T11:53:40.614Z,11024
2016-07-29T11:54:41.108Z,11268
2016-07-29T11:55:40.607Z,10604
2016-07-29T11:56:40.607Z,8948
2016-07-29T11:57:40.657Z,7300
2016-07-29T11:58:41.341Z,7932
2016-07-29T11:59:40.709Z,9056
2016-07-29T12:00:40.662Z,11168
2016-07-29T12:01:40.662Z,11440
2016-07-29T12:02:40.636Z,11644
2016-07-29T12:03:40.669Z,14196
2016-07-29T12:04:40.661Z,14148
2016-07-29T12:05:40.629Z,12756
2016-07-29T12:06:40.627Z,11828
2016-07-29T12:07:40.627Z,10128
2016-07-29T12:08:40.672Z,7808
2016-07-29T12:09:40.671Z,7556
2016-07-29T12:10:40.762Z,8968
2016-07-29T12:11:40.688Z,7492
2016-07-29T12:12:40.686Z,6412
2016-07-29T12:13:40.712Z,8228
2016-07-29T12:14:40.674Z,11848
2016-07-29T12:15:40.659Z,12712
2016-07-29T12:16:40.648Z,11676
2016-07-29T12:17:40.673Z,11724
2016-07-29T12:18:40.701Z,12160
2016-07-29T12:19:40.721Z,10792
2016-07-29T12:20:41.467Z,10192
2016-07-29T12:21:40.705Z,9144
2016-07-29T12:22:41.455Z,8708
2016-07-29T12:23:40.694Z,8660
2016-07-29T12:24:40.696Z,8500
2016-07-29T12:25:40.707Z,7432
2016-07-29T12:26:40.702Z,6336
2016-07-29T12:27:40.736Z,5948
2016-07-29T12:28:40.672Z,6272
2016-07-29T12:29:40.688Z,6744
2016-07-29T12:30:40.669Z,8976
2016-07-29T12:31:40.765Z,11952
2016-07-29T12:32:40.728Z,14788
2016-07-29T12:33:40.725Z,16544
2016-07-29T12:34:40.748Z,16768
2016-07-29T12:35:40.686Z,15520
2016-07-29T12:36:40.695Z,15380
2016-07-29T12:37:40.742Z,14592
2016-07-29T12:38:40.815Z,13024
2016-07-29T12:39:41.671Z,11780
2016-07-29T12:40:40.691Z,11324
2016-07-29T12:41:40.688Z,12040
2016-07-29T12:42:40.694Z,13032
2016-07-29T12:43:40.758Z,12120
2016-07-29T12:44:40.768Z,11784
2016-07-29T12:45:40.844Z,11636
2016-07-29T12:46:41.503Z,11588
2016-07-29T12:47:40.752Z,11384
2016-07-29T12:48:40.748Z,10288
2016-07-29T12:49:40.831Z,9848
2016-07-29T12:50:40.772Z,9448
2016-07-29T12:51:40.794Z,9924
2016-07-29T12:52:40.882Z,11532
2016-07-29T12:53:40.752Z,12936
2016-07-29T12:54:41.513Z,14980
2016-07-29T12:55:41.090Z,13184
2016-07-29T12:56:40.832Z,11004
2016-07-29T12:57:40.784Z,9564
2016-07-29T12:58:40.733Z,8108
2016-07-29T12:59:40.735Z,7708
2016-07-29T13:00:40.767Z,7032
2016-07-29T13:01:40.795Z,8180
2016-07-29T13:02:40.800Z,9304
2016-07-29T13:03:40.800Z,9580
2016-07-29T13:04:40.860Z,10184
2016-07-29T13:05:40.803Z,9836
2016-07-29T13:06:40.791Z,9340
2016-07-29T13:07:40.770Z,9320
2016-07-29T13:08:40.748Z,9384
2016-07-29T13:09:40.763Z,9264
2016-07-29T13:10:40.786Z,9532
2016-07-29T13:11:42.167Z,10388
2016-07-29T13:12:41.192Z,11264
2016-07-29T13:13:41.776Z,10988
2016-07-29T13:14:41.051Z,10328
2016-07-29T13:15:40.847Z,10364
2016-07-29T13:16:40.827Z,11460
2016-07-29T13:17:40.813Z,11824
2016-07-29T13:18:43.216Z,10656
2016-07-29T13:20:40.808Z,9892
2016-07-29T13:21:40.821Z,10144
2016-07-29T13:22:40.803Z,10188
2016-07-29T13:23:40.846Z,9652
2016-07-29T13:24:40.809Z,8952
2016-07-29T13:25:40.847Z,8228
2016-07-29T13:26:40.830Z,7464
2016-07-29T13:27:40.808Z,6652
2016-07-29T13:28:40.819Z,5872
2016-07-29T13:29:40.807Z,5672
2016-07-29T13:30:41.563Z,6368
2016-07-29T13:31:40.808Z,7796
2016-07-29T13:32:40.814Z,7264
2016-07-29T13:33:40.825Z,8776
2016-07-29T13:34:40.861Z,9220
2016-07-29T13:35:40.836Z,8904
2016-07-29T13:36:40.853Z,7980
2016-07-29T13:37:40.881Z,8064
2016-07-29T13:38:40.889Z,8684
2016-07-29T13:39:40.872Z,10376
2016-07-29T13:40:40.880Z,12328
2016-07-29T13:41:40.895Z,13760